createdAt,value
2022-08-31T00:01:36.834Z,1.83
2022-08-31T00:04:07.483Z,1.75
2022-08-31T00:06:35.638Z,1.88
2022-08-31T00:09:03.897Z,1.35
2022-08-31T00:11:37.886Z,1.83
2022-08-31T00:14:13.069Z,1.70
2022-08-31T00:16:44.671Z,1.40
2022-08-31T00:19:12.517Z,1.70
2022-08-31T00:21:42.770Z,1.55
2022-08-31T00:24:11.962Z,1.73
2022-08-31T00:26:45.179Z,1.60
2022-08-31T00:29:12.872Z,1.38
2022-08-31T00:31:40.245Z,1.60
2022-08-31T00:34:28.256Z,1.30
2022-08-31T00:37:00.161Z,1.40
2022-08-31T00:39:27.169Z,1.48
2022-08-31T00:41:54.273Z,1.70
2022-08-31T00:44:21.504Z,1.55
2022-08-31T00:46:48.566Z,1.60
2022-08-31T00:49:18.758Z,1.73
2022-08-31T00:51:49.787Z,1.48
2022-08-31T00:54:18.556Z,1.63
2022-08-31T00:56:46.067Z,1.63
2022-08-31T00:59:14.416Z,1.60
2022-08-31T01:01:41.779Z,1.52
2022-08-31T01:04:09.471Z,1.40
2022-08-31T01:06:36.872Z,1.55
2022-08-31T01:09:05.462Z,1.50
2022-08-31T01:11:36.036Z,1.52
2022-08-31T01:14:14.165Z,1.40
2022-08-31T01:16:43.700Z,1.60
2022-08-31T01:19:17.408Z,1.40
2022-08-31T01:21:48.902Z,1.50
2022-08-31T01:24:15.986Z,1.60
2022-08-31T01:29:34.894Z,1.50
2022-08-31T01:32:17.480Z,1.48
2022-08-31T01:34:47.639Z,1.70
2022-08-31T01:37:14.487Z,1.60
2022-08-31T01:39:45.753Z,1.50
2022-08-31T01:42:22.017Z,1.58
2022-08-31T01:44:58.202Z,1.65
2022-08-31T01:47:25.312Z,1.70
2022-08-31T01:49:52.491Z,1.70
2022-08-31T01:52:24.285Z,1.40
2022-08-31T01:54:55.801Z,1.40
2022-08-31T01:57:32.920Z,1.58
2022-08-31T02:00:16.144Z,1.42
2022-08-31T02:02:43.586Z,1.70
2022-08-31T02:05:14.601Z,1.40
2022-08-31T02:07:41.852Z,1.70
2022-08-31T02:10:15.505Z,1.52
2022-08-31T02:12:45.370Z,1.75
2022-08-31T02:15:12.483Z,1.83
2022-08-31T02:17:40.833Z,1.67
2022-08-31T02:20:14.739Z,1.70
2022-08-31T02:22:42.584Z,1.90
2022-08-31T02:25:12.009Z,1.80
2022-08-31T02:27:40.351Z,1.95
2022-08-31T02:30:16.980Z,1.80
2022-08-31T02:32:43.829Z,1.63
2022-08-31T02:35:11.854Z,1.50
2022-08-31T02:37:38.796Z,2.03
2022-08-31T02:40:17.026Z,1.95
2022-08-31T02:42:53.489Z,1.70
2022-08-31T02:45:21.765Z,1.75
2022-08-31T02:47:50.881Z,2.05
2022-08-31T02:50:18.295Z,1.70
2022-08-31T02:52:46.725Z,1.88
2022-08-31T02:55:17.421Z,1.83
2022-08-31T02:57:44.689Z,1.90
2022-08-31T03:00:14.616Z,1.60
2022-08-31T03:02:41.703Z,1.80
2022-08-31T03:05:10.344Z,1.40
2022-08-31T03:07:38.369Z,1.50
2022-08-31T03:10:14.600Z,1.60
2022-08-31T03:12:41.771Z,1.63
2022-08-31T03:15:09.220Z,1.88
2022-08-31T03:17:36.418Z,1.45
2022-08-31T03:22:49.862Z,1.75
2022-08-31T03:25:18.733Z,1.80
2022-08-31T03:27:46.157Z,1.70
2022-08-31T03:30:14.914Z,1.67
2022-08-31T03:32:42.198Z,1.42
2022-08-31T03:35:15.089Z,1.38
2022-08-31T03:37:42.203Z,1.40
2022-08-31T03:40:15.744Z,1.30
2022-08-31T03:42:42.979Z,1.40
2022-08-31T03:45:10.390Z,1.40
2022-08-31T03:47:44.653Z,1.23
2022-08-31T03:50:16.099Z,1.88
2022-08-31T03:52:43.427Z,1.60
2022-08-31T03:55:10.968Z,1.60
2022-08-31T03:57:37.974Z,1.60
2022-08-31T04:00:08.964Z,1.60
2022-08-31T04:02:42.339Z,1.25
2022-08-31T04:05:10.373Z,1.35
2022-08-31T04:07:42.168Z,1.50
2022-08-31T04:10:13.987Z,1.48
2022-08-31T04:12:41.314Z,1.52
2022-08-31T04:15:11.793Z,1.42
2022-08-31T04:17:38.869Z,1.30
2022-08-31T04:20:17.705Z,1.40
2022-08-31T04:22:45.933Z,1.27
2022-08-31T04:25:12.969Z,1.40
2022-08-31T04:27:58.268Z,1.60
2022-08-31T04:30:25.349Z,1.30
2022-08-31T04:32:53.486Z,1.40
2022-08-31T04:35:20.653Z,1.20
2022-08-31T04:37:48.056Z,1.65
2022-08-31T04:40:25.546Z,1.35
2022-08-31T04:42:53.521Z,1.50
2022-08-31T04:45:24.908Z,1.40
2022-08-31T04:47:52.396Z,1.23
2022-08-31T04:50:21.499Z,1.58
2022-08-31T04:53:03.537Z,1.30
2022-08-31T04:55:36.094Z,1.20
2022-08-31T04:58:03.187Z,1.48
2022-08-31T05:00:30.162Z,1.75
2022-08-31T05:02:57.289Z,1.23
2022-08-31T05:05:45.870Z,1.27
2022-08-31T05:08:22.457Z,1.40
2022-08-31T05:10:49.701Z,1.30
2022-08-31T05:13:16.820Z,1.55
2022-08-31T05:15:44.645Z,1.77
2022-08-31T05:18:18.211Z,1.50
2022-08-31T05:20:45.149Z,1.60
2022-08-31T05:23:12.097Z,1.30
2022-08-31T05:25:40.616Z,1.40
2022-08-31T05:28:10.969Z,1.35
2022-08-31T05:30:38.034Z,1.50
2022-08-31T05:33:04.976Z,1.50
2022-08-31T05:35:31.863Z,1.50
2022-08-31T05:37:58.803Z,1.58
2022-08-31T05:40:25.745Z,1.58
2022-08-31T05:42:56.576Z,1.38
2022-08-31T05:45:26.390Z,1.20
2022-08-31T05:47:53.375Z,1.30
2022-08-31T05:50:20.315Z,1.20
2022-08-31T05:53:01.052Z,1.77
2022-08-31T05:55:28.297Z,1.30
2022-08-31T05:57:55.468Z,1.75
2022-08-31T06:00:25.648Z,1.40
2022-08-31T06:02:53.973Z,1.50
2022-08-31T06:05:21.129Z,1.50
2022-08-31T06:07:48.219Z,1.30
2022-08-31T06:10:18.389Z,1.80
2022-08-31T06:12:47.918Z,1.40
2022-08-31T06:15:15.861Z,1.80
2022-08-31T06:17:43.138Z,1.70
2022-08-31T06:20:14.239Z,1.30
2022-08-31T06:22:54.696Z,1.40
2022-08-31T06:25:23.687Z,1.33
2022-08-31T06:27:52.476Z,1.58
2022-08-31T06:30:22.168Z,1.45
2022-08-31T06:32:58.823Z,1.38
2022-08-31T06:35:25.975Z,1.52
2022-08-31T06:37:53.259Z,1.48
2022-08-31T06:40:20.374Z,1.50
2022-08-31T06:42:47.383Z,1.70
2022-08-31T06:45:14.245Z,1.75
2022-08-31T06:47:41.174Z,1.42
2022-08-31T06:50:14.168Z,1.42
2022-08-31T06:52:41.354Z,1.63
2022-08-31T06:55:08.801Z,1.35
2022-08-31T06:57:35.871Z,1.63
2022-08-31T07:00:03.766Z,1.70
2022-08-31T07:02:31.182Z,1.17
2022-08-31T07:04:58.121Z,1.50
2022-08-31T07:07:25.191Z,1.45
2022-08-31T07:09:53.845Z,1.80
2022-08-31T07:12:24.155Z,1.80
2022-08-31T07:14:55.249Z,1.98
2022-08-31T07:17:22.582Z,2.65
2022-08-31T07:19:49.683Z,1.48
2022-08-31T07:22:16.682Z,1.60
2022-08-31T07:24:43.731Z,2.03
2022-08-31T07:27:13.155Z,1.83
2022-08-31T07:29:40.892Z,1.40
2022-08-31T07:32:18.036Z,1.63
2022-08-31T07:34:45.163Z,1.40
2022-08-31T07:37:30.915Z,1.27
2022-08-31T07:40:16.816Z,1.42
2022-08-31T07:42:45.142Z,1.70
2022-08-31T07:45:25.866Z,1.40
2022-08-31T07:47:59.978Z,1.70
2022-08-31T07:50:27.635Z,1.20
2022-08-31T07:52:55.757Z,1.40
2022-08-31T07:55:23.678Z,1.20
2022-08-31T07:57:53.539Z,1.40
2022-08-31T08:00:22.407Z,1.38
2022-08-31T08:02:52.871Z,1.30
2022-08-31T08:05:27.062Z,1.67
2022-08-31T08:07:57.698Z,1.48
2022-08-31T08:10:26.446Z,1.30
2022-08-31T08:13:05.012Z,1.40
2022-08-31T08:15:38.812Z,1.50
2022-08-31T08:18:07.944Z,1.77
2022-08-31T08:20:37.543Z,1.33
2022-08-31T08:23:13.849Z,1.23
2022-08-31T08:25:43.246Z,1.20
2022-08-31T08:28:38.808Z,1.90
2022-08-31T08:31:08.815Z,1.38
2022-08-31T08:33:36.480Z,1.20
2022-08-31T08:36:08.132Z,1.40
2022-08-31T08:38:36.309Z,1.55
2022-08-31T08:41:05.525Z,1.30
2022-08-31T08:43:33.869Z,1.20
2022-08-31T08:46:15.185Z,1.55
2022-08-31T08:48:55.291Z,1.60
2022-08-31T08:51:25.469Z,1.40
2022-08-31T08:53:55.925Z,1.48
2022-08-31T08:56:33.502Z,1.90
2022-08-31T08:59:07.354Z,1.38
2022-08-31T09:01:37.508Z,1.50
2022-08-31T09:04:06.232Z,1.40
2022-08-31T09:06:45.865Z,1.33
2022-08-31T09:09:37.146Z,1.40
2022-08-31T09:12:16.800Z,1.50
2022-08-31T09:14:49.170Z,1.30
2022-08-31T09:17:34.451Z,1.60
2022-08-31T09:20:04.738Z,1.35
2022-08-31T09:22:33.672Z,1.52
2022-08-31T09:25:02.168Z,1.40
2022-08-31T09:27:46.684Z,1.80
2022-08-31T09:30:32.573Z,1.60
2022-08-31T09:32:59.517Z,1.40
2022-08-31T09:35:36.934Z,1.77
2022-08-31T09:40:37.056Z,1.60
2022-08-31T09:43:04.062Z,1.40
2022-08-31T09:45:37.794Z,1.40
2022-08-31T09:50:35.581Z,1.42
2022-08-31T09:53:26.208Z,1.67
2022-08-31T09:56:05.897Z,1.35
2022-08-31T09:58:35.060Z,1.30
2022-08-31T10:01:12.985Z,1.70
2022-08-31T10:03:47.829Z,1.80
2022-08-31T10:06:41.899Z,1.40
2022-08-31T10:09:29.078Z,1.80
2022-08-31T10:11:59.497Z,1.60
2022-08-31T10:14:34.449Z,1.50
2022-08-31T10:17:10.296Z,1.70
2022-08-31T10:19:53.179Z,1.80
2022-08-31T10:22:47.284Z,1.70
2022-08-31T10:25:18.751Z,1.70
2022-08-31T10:27:56.069Z,1.58
2022-08-31T10:30:23.095Z,1.83
2022-08-31T10:32:53.569Z,1.60
2022-08-31T10:35:37.403Z,2.08
2022-08-31T10:38:19.901Z,1.88
2022-08-31T10:41:00.428Z,1.90
2022-08-31T10:43:44.844Z,1.50
2022-08-31T10:46:15.879Z,1.40
2022-08-31T10:48:51.998Z,1.63
2022-08-31T10:51:35.063Z,1.60
2022-08-31T10:54:03.140Z,1.70
2022-08-31T10:56:41.531Z,1.63
2022-08-31T10:59:31.778Z,1.80
2022-08-31T11:02:17.770Z,1.70
2022-08-31T11:04:51.519Z,1.52
2022-08-31T11:07:26.225Z,1.60
2022-08-31T11:10:03.915Z,1.67
2022-08-31T11:12:37.934Z,2.15
2022-08-31T11:15:09.740Z,1.63
2022-08-31T11:17:55.690Z,1.83
2022-08-31T11:20:41.583Z,1.58
2022-08-31T11:23:20.786Z,1.90
2022-08-31T11:26:07.187Z,1.55
2022-08-31T11:28:37.343Z,2.05
2022-08-31T11:31:20.617Z,1.48
2022-08-31T11:34:14.704Z,1.80
2022-08-31T11:36:50.509Z,1.90
2022-08-31T11:41:48.653Z,1.77
2022-08-31T11:44:30.670Z,1.58
2022-08-31T11:47:34.779Z,1.50
2022-08-31T11:50:05.833Z,1.77
2022-08-31T11:52:43.406Z,1.90
2022-08-31T11:55:15.316Z,1.55
2022-08-31T11:58:06.377Z,1.48
2022-08-31T12:00:48.796Z,1.70
2022-08-31T12:04:09.831Z,1.85
2022-08-31T12:06:38.836Z,1.70
2022-08-31T12:09:15.077Z,1.90
2022-08-31T12:11:49.848Z,1.67
2022-08-31T12:14:33.367Z,1.50
2022-08-31T12:19:50.284Z,1.70
2022-08-31T12:22:54.914Z,1.50
2022-08-31T12:25:27.892Z,1.60
2022-08-31T12:27:55.025Z,1.50
2022-08-31T12:30:24.180Z,1.40
2022-08-31T12:33:00.182Z,1.52
2022-08-31T12:35:33.800Z,1.85
2022-08-31T12:38:03.554Z,1.35
2022-08-31T12:40:45.337Z,1.35
2022-08-31T12:43:29.216Z,1.40
2022-08-31T12:45:59.370Z,1.63
2022-08-31T12:48:32.443Z,1.65
2022-08-31T12:51:05.287Z,1.77
2022-08-31T12:53:44.560Z,2.28
2022-08-31T12:56:15.978Z,2.40
2022-08-31T12:58:58.182Z,2.38
2022-08-31T13:01:26.776Z,2.10
2022-08-31T13:03:56.507Z,2.80
2022-08-31T13:06:25.923Z,2.80
2022-08-31T13:08:56.184Z,2.00
2022-08-31T13:11:35.276Z,2.00
2022-08-31T13:14:23.250Z,2.30
2022-08-31T13:17:04.174Z,2.10
2022-08-31T13:19:33.111Z,1.60
2022-08-31T13:22:08.450Z,1.65
2022-08-31T13:24:37.256Z,1.85
2022-08-31T13:27:18.220Z,1.80
2022-08-31T13:29:45.851Z,1.73
2022-08-31T13:32:33.149Z,2.08
2022-08-31T13:35:04.355Z,2.05
2022-08-31T13:37:40.709Z,2.03
2022-08-31T13:40:15.853Z,1.40
2022-08-31T13:42:45.798Z,1.58
2022-08-31T13:45:30.372Z,1.70
2022-08-31T13:47:59.904Z,1.90
2022-08-31T13:50:38.626Z,1.55
2022-08-31T13:55:52.888Z,1.70
2022-08-31T13:58:26.178Z,1.40
2022-08-31T14:00:58.180Z,1.60
2022-08-31T14:03:59.255Z,1.33
2022-08-31T14:06:38.990Z,1.48
2022-08-31T14:09:17.691Z,1.40
2022-08-31T14:12:01.375Z,1.48
2022-08-31T14:14:40.186Z,1.30
2022-08-31T14:17:15.518Z,1.80
2022-08-31T14:19:44.103Z,1.63
2022-08-31T14:22:16.623Z,1.48
2022-08-31T14:24:46.823Z,1.40
2022-08-31T14:27:14.411Z,1.50
2022-08-31T14:29:44.447Z,1.40
2022-08-31T14:32:19.120Z,1.33
2022-08-31T14:34:49.169Z,1.50
2022-08-31T14:37:22.628Z,1.60
2022-08-31T14:39:51.100Z,1.63
2022-08-31T14:42:28.769Z,1.67
2022-08-31T14:45:05.058Z,1.20
2022-08-31T14:47:35.153Z,1.30
2022-08-31T14:50:08.260Z,1.48
2022-08-31T14:52:36.694Z,1.10
2022-08-31T14:55:05.257Z,1.20
2022-08-31T14:57:35.346Z,1.60
2022-08-31T15:00:02.939Z,1.00
2022-08-31T15:02:33.467Z,0.90
2022-08-31T15:05:01.338Z,1.00
2022-08-31T15:07:32.592Z,1.02
2022-08-31T15:09:59.641Z,0.90
2022-08-31T15:12:26.712Z,1.00
2022-08-31T15:15:02.562Z,1.00
2022-08-31T15:17:33.978Z,0.77
2022-08-31T15:20:02.008Z,0.90
2022-08-31T15:22:29.253Z,1.23
2022-08-31T15:24:56.381Z,0.80
2022-08-31T15:27:31.296Z,1.10
2022-08-31T15:30:08.180Z,1.00
2022-08-31T15:32:39.856Z,0.80
2022-08-31T15:35:07.213Z,1.00
2022-08-31T15:37:34.290Z,1.13
2022-08-31T15:40:02.319Z,0.90
2022-08-31T15:42:31.533Z,0.70
2022-08-31T15:44:59.021Z,0.98
2022-08-31T15:47:49.367Z,1.00
2022-08-31T15:50:21.215Z,0.98
2022-08-31T15:52:51.188Z,0.98
2022-08-31T15:55:21.736Z,0.90
2022-08-31T15:57:49.173Z,0.85
2022-08-31T16:00:17.018Z,0.77
2022-08-31T16:02:44.524Z,0.90
2022-08-31T16:05:12.714Z,1.17
2022-08-31T16:07:40.059Z,0.70
2022-08-31T16:10:19.337Z,1.00
2022-08-31T16:12:47.864Z,0.85
2022-08-31T16:15:16.032Z,0.95
2022-08-31T16:17:43.020Z,1.00
2022-08-31T16:20:11.487Z,0.75
2022-08-31T16:22:38.993Z,0.82
2022-08-31T16:25:07.104Z,1.20
2022-08-31T16:27:36.844Z,1.10
2022-08-31T16:30:04.499Z,0.90
2022-08-31T16:32:31.639Z,0.70
2022-08-31T16:34:59.831Z,1.20
2022-08-31T16:37:27.805Z,1.00
2022-08-31T16:39:54.813Z,1.33
2022-08-31T16:42:22.434Z,0.95
2022-08-31T16:44:49.512Z,0.88
2022-08-31T16:47:17.114Z,0.85
2022-08-31T16:49:44.512Z,1.00
2022-08-31T16:52:31.945Z,0.85
2022-08-31T16:54:58.940Z,1.00
2022-08-31T16:57:27.413Z,0.80
2022-08-31T17:00:16.426Z,1.00
2022-08-31T17:02:43.424Z,1.30
2022-08-31T17:05:10.461Z,0.70
2022-08-31T17:07:37.731Z,0.80
2022-08-31T17:10:06.996Z,0.80
2022-08-31T17:12:44.227Z,0.75
2022-08-31T17:15:13.962Z,1.00
2022-08-31T17:17:40.911Z,1.10
2022-08-31T17:20:08.284Z,0.90
2022-08-31T17:22:36.489Z,0.88
2022-08-31T17:25:05.012Z,1.02
2022-08-31T17:27:33.642Z,0.90
2022-08-31T17:30:01.372Z,0.90
2022-08-31T17:32:29.212Z,0.90
2022-08-31T17:34:56.600Z,1.00
2022-08-31T17:37:26.076Z,1.10
2022-08-31T17:39:53.865Z,0.93
2022-08-31T17:42:21.940Z,1.10
2022-08-31T17:44:52.258Z,1.00
2022-08-31T17:47:20.357Z,0.75
2022-08-31T17:49:51.169Z,1.10
2022-08-31T17:52:27.923Z,1.10
2022-08-31T17:54:55.585Z,0.80
2022-08-31T17:57:26.457Z,0.98
2022-08-31T17:59:54.998Z,0.80
2022-08-31T18:02:27.057Z,1.15
2022-08-31T18:04:54.007Z,1.30
2022-08-31T18:07:21.072Z,1.38
2022-08-31T18:09:48.176Z,1.10
2022-08-31T18:12:15.950Z,1.20
2022-08-31T18:14:43.319Z,1.10
2022-08-31T18:17:11.282Z,1.00
2022-08-31T18:19:39.689Z,1.10
2022-08-31T18:22:07.129Z,1.15
2022-08-31T18:24:35.667Z,1.33
2022-08-31T18:27:04.176Z,1.20
2022-08-31T18:29:34.810Z,1.73
2022-08-31T18:32:05.543Z,1.30
2022-08-31T18:34:44.913Z,1.42
2022-08-31T18:37:13.104Z,1.35
2022-08-31T18:40:08.722Z,1.48
2022-08-31T18:42:57.035Z,1.45
2022-08-31T18:45:24.576Z,1.42
2022-08-31T18:48:24.450Z,1.60
2022-08-31T18:50:52.121Z,1.30
2022-08-31T18:53:28.702Z,1.63
2022-08-31T18:56:15.174Z,1.23
2022-08-31T18:59:09.143Z,1.15
2022-08-31T19:01:36.495Z,1.17
2022-08-31T19:04:08.654Z,1.00
2022-08-31T19:06:35.648Z,1.10
2022-08-31T19:09:02.642Z,1.20
2022-08-31T19:11:29.726Z,1.48
2022-08-31T19:14:15.071Z,1.13
2022-08-31T19:16:42.914Z,0.90
2022-08-31T19:19:14.424Z,1.10
2022-08-31T19:21:52.710Z,1.30
2022-08-31T19:24:20.129Z,1.20
2022-08-31T19:26:54.118Z,1.02
2022-08-31T19:29:25.738Z,1.20
2022-08-31T19:31:54.052Z,1.17
2022-08-31T19:34:31.042Z,1.02
2022-08-31T19:36:59.001Z,1.60
2022-08-31T19:39:30.163Z,1.13
2022-08-31T19:41:59.275Z,1.10
2022-08-31T19:44:54.511Z,1.17
2022-08-31T19:47:25.120Z,1.05
2022-08-31T19:52:33.270Z,0.88
2022-08-31T19:55:09.491Z,0.98
2022-08-31T19:57:37.771Z,1.00
2022-08-31T20:00:05.839Z,1.00
2022-08-31T20:02:32.743Z,1.15
2022-08-31T20:05:07.731Z,0.80
2022-08-31T20:07:35.919Z,0.93
2022-08-31T20:10:04.142Z,1.00
2022-08-31T20:12:31.056Z,1.05
2022-08-31T20:14:58.156Z,1.08
2022-08-31T20:17:25.502Z,0.80
2022-08-31T20:19:54.960Z,0.82
2022-08-31T20:22:24.123Z,1.20
2022-08-31T20:24:55.772Z,1.25
2022-08-31T20:27:25.567Z,1.00
2022-08-31T20:29:52.738Z,1.00
2022-08-31T20:32:20.694Z,0.90
2022-08-31T20:34:57.261Z,0.80
2022-08-31T20:37:24.816Z,0.90
2022-08-31T20:39:52.085Z,1.02
2022-08-31T20:42:28.453Z,0.82
2022-08-31T20:44:56.272Z,1.17
2022-08-31T20:47:41.945Z,1.10
2022-08-31T20:50:11.637Z,1.23
2022-08-31T20:52:45.789Z,1.10
2022-08-31T20:55:15.127Z,1.20
2022-08-31T20:57:42.131Z,1.00
2022-08-31T21:00:10.909Z,0.90
2022-08-31T21:02:39.900Z,0.80
2022-08-31T21:05:36.420Z,0.90
2022-08-31T21:07:57.458Z,0.90
2022-08-31T21:10:36.457Z,0.85
2022-08-31T21:13:09.618Z,0.95
2022-08-31T21:15:46.957Z,0.85
2022-08-31T21:18:18.037Z,0.70
2022-08-31T21:20:51.152Z,1.20
2022-08-31T21:23:18.823Z,0.90
2022-08-31T21:25:46.212Z,0.93
2022-08-31T21:28:14.646Z,1.20
2022-08-31T21:30:41.712Z,1.00
2022-08-31T21:33:08.576Z,1.00
2022-08-31T21:35:35.629Z,0.82
2022-08-31T21:38:03.550Z,1.00
2022-08-31T21:40:33.377Z,1.00
2022-08-31T21:43:12.316Z,1.10
2022-08-31T21:45:41.542Z,1.20
2022-08-31T21:48:11.190Z,1.00
2022-08-31T21:50:38.334Z,1.00
2022-08-31T21:53:07.569Z,0.95
2022-08-31T21:55:37.247Z,0.90
2022-08-31T21:58:04.288Z,1.02
2022-08-31T22:00:32.465Z,1.17
2022-08-31T22:03:02.716Z,0.98
2022-08-31T22:05:33.262Z,1.23
2022-08-31T22:08:01.744Z,1.13
2022-08-31T22:10:32.756Z,1.27
2022-08-31T22:13:12.729Z,1.10
2022-08-31T22:15:40.565Z,1.02
2022-08-31T22:18:46.005Z,1.20
2022-08-31T22:20:56.009Z,1.02
2022-08-31T22:23:24.769Z,1.15
2022-08-31T22:26:04.307Z,1.00
2022-08-31T22:28:31.198Z,1.30
2022-08-31T22:31:13.661Z,1.17
2022-08-31T22:33:47.504Z,1.20
2022-08-31T22:36:31.243Z,1.30
2022-08-31T22:39:07.061Z,1.33
2022-08-31T22:41:37.553Z,1.20
2022-08-31T22:44:08.661Z,1.20
2022-08-31T22:46:36.658Z,1.20
2022-08-31T22:49:04.590Z,0.93
2022-08-31T22:51:32.480Z,1.50
2022-08-31T22:54:04.089Z,1.15
2022-08-31T22:56:32.605Z,1.10
2022-08-31T22:59:02.171Z,1.20
2022-08-31T23:01:34.648Z,1.30
2022-08-31T23:04:06.757Z,1.00
2022-08-31T23:06:37.981Z,1.50
2022-08-31T23:09:07.832Z,1.77
2022-08-31T23:11:35.365Z,1.50
2022-08-31T23:14:07.300Z,1.40
2022-08-31T23:16:40.437Z,1.10
2022-08-31T23:19:12.445Z,1.42
2022-08-31T23:21:45.142Z,1.48
2022-08-31T23:24:13.839Z,1.50
2022-08-31T23:26:44.026Z,1.25
2022-08-31T23:29:11.250Z,1.50
2022-08-31T23:31:38.766Z,1.58
2022-08-31T23:34:09.955Z,1.60
2022-08-31T23:39:10.747Z,1.33
2022-08-31T23:41:44.948Z,1.38
2022-08-31T23:44:13.237Z,1.10
2022-08-31T23:46:40.685Z,1.08
2022-08-31T23:49:10.943Z,1.20
2022-08-31T23:51:38.624Z,1.30
2022-08-31T23:54:08.058Z,2.00
2022-08-31T23:56:36.503Z,1.40
2022-08-31T23:59:07.387Z,1.35
